createdAt,value
2023-01-08T00:02:17.371Z,100302.47
2023-01-08T00:04:50.624Z,100302.16
2023-01-08T00:07:23.864Z,100308.22
2023-01-08T00:09:58.595Z,100307.59
2023-01-08T00:12:32.631Z,100300.47
2023-01-08T00:15:08.011Z,100301.25
2023-01-08T00:17:41.626Z,100302.09
2023-01-08T00:20:14.903Z,100305.63
2023-01-08T00:22:49.791Z,100301.38
2023-01-08T00:25:24.817Z,100297.44
2023-01-08T00:27:58.017Z,100303.06
2023-01-08T00:30:31.349Z,100305.19
2023-01-08T00:33:05.164Z,100287.97
2023-01-08T00:35:38.765Z,100295.25
2023-01-08T00:38:11.898Z,100296.59
2023-01-08T00:40:46.884Z,100292.66
2023-01-08T00:43:20.271Z,100293.13
2023-01-08T00:45:54.044Z,100295.66
2023-01-08T00:48:27.079Z,100299.25
2023-01-08T00:51:03.384Z,100288.69
2023-01-08T00:53:38.108Z,100293.31
2023-01-08T00:56:13.376Z,100292.00
2023-01-08T00:58:47.099Z,100290.84
2023-01-08T01:01:20.470Z,100297.50
2023-01-08T01:03:53.768Z,100303.28
2023-01-08T01:06:27.016Z,100301.25
2023-01-08T01:09:00.469Z,100298.81
2023-01-08T01:11:35.765Z,100305.19
2023-01-08T01:14:10.816Z,100305.03
2023-01-08T01:16:44.749Z,100308.53
2023-01-08T01:19:18.632Z,100303.41
2023-01-08T01:21:52.053Z,100305.13
2023-01-08T01:24:26.311Z,100302.16
2023-01-08T01:27:01.327Z,100299.28
2023-01-08T01:29:34.689Z,100297.94
2023-01-08T01:32:08.341Z,100294.09
2023-01-08T01:34:41.548Z,100300.38
2023-01-08T01:37:15.339Z,100300.66
2023-01-08T01:39:48.557Z,100293.91
2023-01-08T01:42:41.549Z,100302.44
2023-01-08T01:45:18.025Z,100295.00
2023-01-08T01:47:55.779Z,100284.78
2023-01-08T01:50:31.734Z,100298.19
2023-01-08T01:53:10.164Z,100290.56
2023-01-08T01:55:45.077Z,100279.47
2023-01-08T01:58:23.966Z,100286.69
2023-01-08T02:00:59.949Z,100233.44
2023-01-08T02:03:37.816Z,100300.94
2023-01-08T02:06:21.267Z,100299.16
2023-01-08T02:09:02.545Z,100285.84
2023-01-08T02:11:43.772Z,100282.56
2023-01-08T02:14:24.104Z,100285.91
2023-01-08T02:17:03.802Z,100293.75
2023-01-08T02:19:44.008Z,100209.25
2023-01-08T02:22:33.874Z,100282.16
2023-01-08T02:25:13.859Z,100284.78
2023-01-08T02:27:52.319Z,100280.34
2023-01-08T02:30:26.448Z,100277.53
2023-01-08T02:33:00.262Z,100269.94
2023-01-08T02:35:41.330Z,100272.13
2023-01-08T02:38:17.799Z,100272.06
2023-01-08T02:40:58.365Z,100271.91
2023-01-08T02:43:42.387Z,100257.09
2023-01-08T02:46:24.717Z,100264.34
2023-01-08T02:49:03.912Z,100271.84
2023-01-08T02:51:42.271Z,100268.44
2023-01-08T02:54:19.311Z,100264.84
2023-01-08T02:56:58.316Z,100263.28
2023-01-08T02:59:33.853Z,100272.56
2023-01-08T03:02:09.075Z,100268.09
2023-01-08T03:04:53.288Z,100265.25
2023-01-08T03:07:26.457Z,100268.84
2023-01-08T03:10:00.679Z,100277.00
2023-01-08T03:12:46.364Z,100263.19
2023-01-08T03:15:26.759Z,100279.16
2023-01-08T03:18:05.859Z,100206.00
2023-01-08T03:20:40.348Z,100276.94
2023-01-08T03:23:15.953Z,100271.56
2023-01-08T03:25:49.528Z,100275.50
2023-01-08T03:28:30.257Z,100275.44
2023-01-08T03:31:07.436Z,100280.56
2023-01-08T03:33:41.583Z,100273.69
2023-01-08T03:36:17.889Z,100268.56
2023-01-08T03:38:55.572Z,100268.72
2023-01-08T03:41:32.481Z,100259.91
2023-01-08T03:44:06.320Z,100267.94
2023-01-08T03:46:48.363Z,100266.53
2023-01-08T03:49:24.102Z,100262.44
2023-01-08T03:51:57.843Z,100245.97
2023-01-08T03:54:33.784Z,100267.78
2023-01-08T03:57:06.942Z,100261.34
2023-01-08T03:59:40.248Z,100263.47
2023-01-08T04:02:15.265Z,100269.44
2023-01-08T04:04:48.951Z,100269.38
2023-01-08T04:07:22.898Z,100279.03
2023-01-08T04:09:56.128Z,100275.50
2023-01-08T04:12:30.210Z,100277.41
2023-01-08T04:15:03.688Z,100281.00
2023-01-08T04:17:38.395Z,100288.56
2023-01-08T04:20:12.398Z,100288.00
2023-01-08T04:22:46.260Z,100281.69
2023-01-08T04:25:19.869Z,100285.25
2023-01-08T04:27:53.063Z,100284.84
2023-01-08T04:30:26.287Z,100288.78
2023-01-08T04:33:01.004Z,100285.91
2023-01-08T04:35:34.239Z,100221.59
2023-01-08T04:38:07.625Z,100292.56
2023-01-08T04:40:41.303Z,100294.44
2023-01-08T04:43:14.726Z,100294.13
2023-01-08T04:45:47.991Z,100287.88
2023-01-08T04:48:22.573Z,100292.66
2023-01-08T04:50:55.919Z,100264.13
2023-01-08T04:53:30.211Z,100285.94
2023-01-08T04:56:07.942Z,100266.91
2023-01-08T04:58:41.638Z,100281.66
2023-01-08T05:01:20.149Z,100290.66
2023-01-08T05:03:56.508Z,100291.81
2023-01-08T05:06:31.447Z,100292.41
2023-01-08T05:09:05.097Z,100291.81
2023-01-08T05:11:38.399Z,100298.97
2023-01-08T05:14:12.390Z,100304.13
2023-01-08T05:16:45.919Z,100303.59
2023-01-08T05:19:20.522Z,100299.69
2023-01-08T05:21:54.231Z,100303.94
2023-01-08T05:24:28.624Z,100314.53
2023-01-08T05:27:02.080Z,100306.97
2023-01-08T05:29:35.716Z,100309.22
2023-01-08T05:32:16.238Z,100311.19
2023-01-08T05:34:51.628Z,100309.19
2023-01-08T05:37:24.958Z,100308.22
2023-01-08T05:39:59.057Z,100320.22
2023-01-08T05:42:34.671Z,100325.94
2023-01-08T05:45:09.688Z,100316.13
2023-01-08T05:47:43.018Z,100314.88
2023-01-08T05:50:18.006Z,100321.31
2023-01-08T05:52:51.344Z,100329.72
2023-01-08T05:55:24.587Z,100327.69
2023-01-08T05:58:01.571Z,100320.16
2023-01-08T06:00:35.957Z,100331.16
2023-01-08T06:03:09.422Z,100325.75
2023-01-08T06:05:44.348Z,100328.50
2023-01-08T06:08:17.620Z,100330.88
2023-01-08T06:10:50.884Z,100330.38
2023-01-08T06:13:24.054Z,100332.44
2023-01-08T06:16:00.595Z,100325.47
2023-01-08T06:18:34.034Z,100333.72
2023-01-08T06:21:08.723Z,100339.47
2023-01-08T06:23:41.881Z,100338.25
2023-01-08T06:26:15.468Z,100282.09
2023-01-08T06:28:48.805Z,100345.69
2023-01-08T06:31:22.037Z,100348.00
2023-01-08T06:33:55.251Z,100353.38
2023-01-08T06:36:29.935Z,100354.16
2023-01-08T06:39:03.347Z,100354.09
2023-01-08T06:41:36.740Z,100358.31
2023-01-08T06:44:10.032Z,100365.66
2023-01-08T06:46:43.428Z,100363.88
2023-01-08T06:49:18.077Z,100367.28
2023-01-08T06:51:52.676Z,100367.38
2023-01-08T06:54:25.909Z,100366.13
2023-01-08T06:57:00.048Z,100365.78
2023-01-08T06:59:33.391Z,100309.22
2023-01-08T07:02:07.036Z,100370.13
2023-01-08T07:04:40.538Z,100373.84
2023-01-08T07:07:16.521Z,100339.38
2023-01-08T07:09:49.789Z,100376.22
2023-01-08T07:12:24.102Z,100371.22
2023-01-08T07:14:58.390Z,100376.09
2023-01-08T07:17:33.663Z,100382.34
2023-01-08T07:20:09.690Z,100365.97
2023-01-08T07:22:44.315Z,100378.63
2023-01-08T07:25:17.862Z,100373.81
2023-01-08T07:27:51.878Z,100383.09
2023-01-08T07:30:30.263Z,100377.97
2023-01-08T07:33:04.277Z,100378.06
2023-01-08T07:35:39.051Z,100361.41
2023-01-08T07:38:13.674Z,100383.34
2023-01-08T07:40:47.131Z,100389.56
2023-01-08T07:43:20.639Z,100386.28
2023-01-08T07:45:53.818Z,100394.53
2023-01-08T07:48:27.029Z,100397.63
2023-01-08T07:51:03.315Z,100387.59
2023-01-08T07:53:38.774Z,100374.66
2023-01-08T07:56:12.582Z,100385.84
2023-01-08T07:58:47.358Z,100383.56
2023-01-08T08:01:21.080Z,100393.38
2023-01-08T08:03:54.453Z,100383.88
2023-01-08T08:06:27.712Z,100377.63
2023-01-08T08:09:03.926Z,100385.50
2023-01-08T08:11:38.525Z,100384.06
2023-01-08T08:14:12.538Z,100379.00
2023-01-08T08:16:46.117Z,100378.44
2023-01-08T08:19:19.193Z,100382.16
2023-01-08T08:21:52.676Z,100372.59
2023-01-08T08:24:27.252Z,100377.28
2023-01-08T08:27:00.545Z,100378.72
2023-01-08T08:29:34.461Z,100374.78
2023-01-08T08:32:07.983Z,100374.41
2023-01-08T08:34:41.293Z,100367.56
2023-01-08T08:37:14.737Z,100369.41
2023-01-08T08:39:49.420Z,100368.47
2023-01-08T08:42:22.704Z,100378.13
2023-01-08T08:44:55.973Z,100378.47
2023-01-08T08:47:29.437Z,100367.59
2023-01-08T08:50:03.283Z,100363.34
2023-01-08T08:52:37.639Z,100367.84
2023-01-08T08:55:15.204Z,100359.28
2023-01-08T08:57:49.380Z,100351.59
2023-01-08T09:00:23.499Z,100351.19
2023-01-08T09:02:56.982Z,100342.81
2023-01-08T09:05:30.569Z,100347.72
2023-01-08T09:08:04.115Z,100354.41
2023-01-08T09:10:41.548Z,100345.28
2023-01-08T09:13:15.223Z,100338.88
2023-01-08T09:15:49.006Z,100338.47
2023-01-08T09:18:22.556Z,100340.00
2023-01-08T09:20:56.095Z,100331.81
2023-01-08T09:23:29.478Z,100335.41
2023-01-08T09:26:05.700Z,100340.59
2023-01-08T09:28:39.234Z,100330.47
2023-01-08T09:31:12.746Z,100325.84
2023-01-08T09:33:48.318Z,100325.56
2023-01-08T09:36:21.826Z,100319.88
2023-01-08T09:38:55.222Z,100314.56
2023-01-08T09:41:34.068Z,100289.09
2023-01-08T09:44:08.384Z,100304.81
2023-01-08T09:46:42.765Z,100294.28
2023-01-08T09:49:22.622Z,100292.00
2023-01-08T09:51:56.571Z,100283.78
2023-01-08T09:54:29.748Z,100288.72
2023-01-08T09:57:04.854Z,100282.41
2023-01-08T09:59:39.358Z,100276.00
2023-01-08T10:02:15.603Z,100286.41
2023-01-08T10:04:55.541Z,100271.94
2023-01-08T10:07:31.297Z,100272.41
2023-01-08T10:10:04.932Z,100266.41
2023-01-08T10:12:40.973Z,100269.72
2023-01-08T10:15:17.296Z,100256.84
2023-01-08T10:17:59.018Z,100265.00
2023-01-08T10:20:33.966Z,100256.03
2023-01-08T10:23:11.925Z,100246.75
2023-01-08T10:25:52.375Z,100246.47
2023-01-08T10:28:28.694Z,100241.16
2023-01-08T10:31:17.637Z,100242.78
2023-01-08T10:33:51.809Z,100235.56
2023-01-08T10:36:27.654Z,100190.84
2023-01-08T10:39:03.288Z,100223.41
2023-01-08T10:41:40.719Z,100217.91
2023-01-08T10:44:19.079Z,100221.97
2023-01-08T10:46:57.000Z,100216.47
2023-01-08T10:49:35.183Z,100200.09
2023-01-08T10:52:24.910Z,100206.41
2023-01-08T10:54:59.632Z,100178.09
2023-01-08T10:57:34.487Z,100201.63
2023-01-08T11:00:27.427Z,100202.69
2023-01-08T11:03:02.982Z,100202.50
2023-01-08T11:05:38.638Z,100197.75
2023-01-08T11:08:17.937Z,100196.66
2023-01-08T11:10:56.152Z,100192.28
2023-01-08T11:13:31.058Z,100180.72
2023-01-08T11:16:08.454Z,100182.44
2023-01-08T11:18:47.180Z,100182.31
2023-01-08T11:21:24.862Z,100182.44
2023-01-08T11:24:16.460Z,100178.59
2023-01-08T11:26:54.396Z,100176.28
2023-01-08T11:29:37.393Z,100180.97
2023-01-08T11:32:28.114Z,100174.69
2023-01-08T11:35:11.113Z,100172.88
2023-01-08T11:37:51.484Z,100174.38
2023-01-08T11:40:39.228Z,100164.63
2023-01-08T11:43:26.348Z,100163.94
2023-01-08T11:46:26.313Z,100163.56
2023-01-08T11:49:39.447Z,100162.19
2023-01-08T11:52:28.519Z,100158.66
2023-01-08T11:55:16.863Z,100142.72
2023-01-08T11:58:02.409Z,100145.50
2023-01-08T12:01:14.473Z,100139.22
2023-01-08T12:03:52.741Z,100143.59
2023-01-08T12:06:37.799Z,100140.19
2023-01-08T12:09:17.820Z,100143.59
2023-01-08T12:11:57.433Z,100137.66
2023-01-08T12:14:47.193Z,100131.50
2023-01-08T12:17:46.479Z,100132.66
2023-01-08T12:20:29.657Z,100135.44
2023-01-08T12:23:16.174Z,100139.78
2023-01-08T12:26:00.562Z,100132.97
2023-01-08T12:28:55.107Z,100125.09
2023-01-08T12:32:02.994Z,100128.84
2023-01-08T12:34:48.947Z,100113.81
2023-01-08T12:37:28.595Z,100128.84
2023-01-08T12:40:13.257Z,100129.00
2023-01-08T12:42:59.920Z,100127.84
2023-01-08T12:45:38.735Z,100124.91
2023-01-08T12:48:16.715Z,100122.53
2023-01-08T12:51:00.588Z,100129.34
2023-01-08T12:53:44.821Z,100118.22
2023-01-08T12:56:31.982Z,100121.59
2023-01-08T12:59:19.967Z,100122.88
2023-01-08T13:01:59.895Z,100120.00
2023-01-08T13:04:41.689Z,100121.81
2023-01-08T13:07:21.569Z,100114.56
2023-01-08T13:09:57.233Z,100108.94
2023-01-08T13:12:37.386Z,100110.00
2023-01-08T13:15:21.710Z,100135.50
2023-01-08T13:17:58.276Z,100125.75
2023-01-08T13:20:33.280Z,100119.66
2023-01-08T13:23:07.151Z,100130.75
2023-01-08T13:25:40.602Z,100128.94
2023-01-08T13:28:29.479Z,100134.66
2023-01-08T13:31:11.020Z,100138.72
2023-01-08T13:33:47.166Z,100138.63
2023-01-08T13:36:23.221Z,100126.06
2023-01-08T13:39:23.289Z,100130.84
2023-01-08T13:42:03.560Z,100131.81
2023-01-08T13:44:42.583Z,100125.31
2023-01-08T13:47:23.447Z,100131.38
2023-01-08T13:49:58.028Z,100120.88
2023-01-08T13:52:40.407Z,100128.28
2023-01-08T13:55:17.932Z,100120.84
2023-01-08T13:57:57.154Z,100130.81
2023-01-08T14:00:44.765Z,100128.69
2023-01-08T14:03:26.422Z,100119.09
2023-01-08T14:06:16.494Z,100119.63
2023-01-08T14:08:54.348Z,100112.06
2023-01-08T14:11:31.963Z,100120.03
2023-01-08T14:14:06.469Z,100115.13
2023-01-08T14:16:42.669Z,100115.22
2023-01-08T14:19:18.939Z,100118.06
2023-01-08T14:21:54.792Z,100117.97
2023-01-08T14:24:28.827Z,100119.34
2023-01-08T14:27:02.491Z,100121.34
2023-01-08T14:29:36.644Z,100114.53
2023-01-08T14:32:18.149Z,100120.25
2023-01-08T14:34:53.173Z,100116.81
2023-01-08T14:37:26.738Z,100108.75
2023-01-08T14:40:00.745Z,100116.28
2023-01-08T14:42:44.386Z,100112.13
2023-01-08T14:45:21.424Z,100102.25
2023-01-08T14:47:59.864Z,100115.72
2023-01-08T14:50:36.731Z,100105.34
2023-01-08T14:53:20.586Z,100111.88
2023-01-08T14:56:05.892Z,100115.75
2023-01-08T14:58:42.684Z,100059.19
2023-01-08T15:01:18.090Z,100106.41
2023-01-08T15:04:04.821Z,100077.47
2023-01-08T15:06:38.232Z,100113.63
2023-01-08T15:09:22.632Z,100119.25
2023-01-08T15:12:00.904Z,100118.28
2023-01-08T15:14:37.348Z,100114.22
2023-01-08T15:17:17.051Z,100120.66
2023-01-08T15:19:54.593Z,100113.75
2023-01-08T15:22:32.873Z,100057.81
2023-01-08T15:25:08.733Z,100094.16
2023-01-08T15:27:43.058Z,100106.38
2023-01-08T15:30:27.484Z,100115.84
2023-01-08T15:33:09.725Z,100117.00
2023-01-08T15:35:44.636Z,100120.19
2023-01-08T15:38:20.795Z,100118.59
2023-01-08T15:40:55.991Z,100124.06
2023-01-08T15:43:28.531Z,100124.25
2023-01-08T15:46:02.138Z,100122.91
2023-01-08T15:48:35.776Z,100128.31
2023-01-08T15:51:11.481Z,100127.91
2023-01-08T15:53:44.929Z,100124.47
2023-01-08T15:56:18.394Z,100119.56
2023-01-08T15:58:52.964Z,100118.72
2023-01-08T16:01:28.869Z,100119.75
2023-01-08T16:04:02.777Z,100125.22
2023-01-08T16:06:37.378Z,100126.44
2023-01-08T16:09:10.714Z,100121.31
2023-01-08T16:11:44.715Z,100125.66
2023-01-08T16:14:18.279Z,100128.41
2023-01-08T16:16:52.482Z,100124.22
2023-01-08T16:19:27.725Z,100123.56
2023-01-08T16:22:02.374Z,100122.03
2023-01-08T16:24:35.909Z,100128.34
2023-01-08T16:27:10.008Z,100122.41
2023-01-08T16:29:43.298Z,100121.63
2023-01-08T16:32:16.837Z,100116.69
2023-01-08T16:34:50.809Z,100133.59
2023-01-08T16:37:25.794Z,100125.00
2023-01-08T16:40:00.315Z,100133.97
2023-01-08T16:42:34.119Z,100130.56
2023-01-08T16:45:09.194Z,100129.97
2023-01-08T16:47:42.755Z,100132.13
2023-01-08T16:50:16.520Z,100131.50
2023-01-08T16:52:51.503Z,100071.63
2023-01-08T16:55:24.790Z,100134.78
2023-01-08T16:57:58.023Z,100138.34
2023-01-08T17:00:31.425Z,100138.09
2023-01-08T17:03:06.013Z,100138.69
2023-01-08T17:05:39.546Z,100145.09
2023-01-08T17:08:16.395Z,100148.69
2023-01-08T17:10:49.920Z,100144.66
2023-01-08T17:13:23.619Z,100147.38
2023-01-08T17:15:59.761Z,100154.72
2023-01-08T17:18:36.419Z,100153.47
2023-01-08T17:21:12.342Z,100121.22
2023-01-08T17:23:47.719Z,100158.69
2023-01-08T17:26:21.163Z,100155.50
2023-01-08T17:28:55.597Z,100163.25
2023-01-08T17:31:28.950Z,100168.09
2023-01-08T17:34:03.217Z,100160.41
2023-01-08T17:36:47.983Z,100163.47
2023-01-08T17:39:22.742Z,100161.59
2023-01-08T17:42:13.639Z,100170.06
2023-01-08T17:44:47.183Z,100175.50
2023-01-08T17:47:20.999Z,100172.31
2023-01-08T17:49:54.476Z,100170.69
2023-01-08T17:52:27.889Z,100184.69
2023-01-08T17:55:03.175Z,100179.16
2023-01-08T17:57:36.891Z,100184.75
2023-01-08T18:00:11.598Z,100176.44
2023-01-08T18:02:45.528Z,100179.00
2023-01-08T18:05:19.250Z,100180.69
2023-01-08T18:07:52.709Z,100169.50
2023-01-08T18:10:27.547Z,100175.53
2023-01-08T18:13:01.503Z,100177.34
2023-01-08T18:15:38.548Z,100185.81
2023-01-08T18:18:11.902Z,100181.22
2023-01-08T18:20:45.255Z,100182.47
2023-01-08T18:23:18.575Z,100177.16
2023-01-08T18:26:05.136Z,100177.47
2023-01-08T18:28:38.324Z,100178.56
2023-01-08T18:31:12.855Z,100180.94
2023-01-08T18:33:46.207Z,100178.31
2023-01-08T18:36:20.605Z,100180.09
2023-01-08T18:38:55.822Z,100184.88
2023-01-08T18:41:47.967Z,100177.91
2023-01-08T18:44:21.821Z,100178.47
2023-01-08T18:46:56.026Z,100189.16
2023-01-08T18:49:29.499Z,100187.16
2023-01-08T18:52:02.661Z,100190.91
2023-01-08T18:54:35.951Z,100188.44
2023-01-08T18:57:11.027Z,100183.19
2023-01-08T18:59:44.337Z,100184.91
2023-01-08T19:02:21.370Z,100169.94
2023-01-08T19:04:54.888Z,100181.13
2023-01-08T19:07:28.435Z,100179.69
2023-01-08T19:10:02.350Z,100179.84
2023-01-08T19:12:39.259Z,100185.47
2023-01-08T19:15:13.825Z,100180.91
2023-01-08T19:17:47.221Z,100190.94
2023-01-08T19:20:20.769Z,100191.28
2023-01-08T19:22:54.389Z,100187.00
2023-01-08T19:25:28.255Z,100163.94
2023-01-08T19:28:03.267Z,100184.72
2023-01-08T19:30:38.123Z,100194.81
2023-01-08T19:33:13.247Z,100192.78
2023-01-08T19:35:46.410Z,100187.06
2023-01-08T19:38:20.068Z,100190.84
2023-01-08T19:40:53.285Z,100195.63
2023-01-08T19:43:42.325Z,100191.69
2023-01-08T19:46:18.378Z,100196.88
2023-01-08T19:48:52.066Z,100196.94
2023-01-08T19:51:26.123Z,100207.16
2023-01-08T19:54:01.159Z,100205.84
2023-01-08T19:56:35.460Z,100211.41
2023-01-08T19:59:11.414Z,100204.53
2023-01-08T20:01:45.724Z,100207.41
2023-01-08T20:04:20.263Z,100198.50
2023-01-08T20:06:55.275Z,100197.94
2023-01-08T20:09:30.257Z,100194.84
2023-01-08T20:12:07.105Z,100197.41
2023-01-08T20:14:43.185Z,100187.84
2023-01-08T20:17:19.707Z,100194.44
2023-01-08T20:19:55.606Z,100192.59
2023-01-08T20:22:31.500Z,100197.19
2023-01-08T20:25:07.613Z,100197.13
2023-01-08T20:27:41.469Z,100196.41
2023-01-08T20:30:16.561Z,100192.00
2023-01-08T20:35:24.389Z,100193.03
2023-01-08T20:37:57.687Z,100193.16
2023-01-08T20:40:31.221Z,100197.84
2023-01-08T20:43:04.938Z,100166.13
2023-01-08T20:45:42.671Z,100197.66
2023-01-08T20:48:16.047Z,100202.88
2023-01-08T20:50:55.941Z,100203.91
2023-01-08T20:53:30.360Z,100207.84
2023-01-08T20:56:05.828Z,100209.25
2023-01-08T20:58:41.005Z,100203.47
2023-01-08T21:01:18.145Z,100144.38
2023-01-08T21:03:55.291Z,100208.34
2023-01-08T21:06:30.527Z,100203.09
2023-01-08T21:09:07.703Z,100202.72
2023-01-08T21:11:42.367Z,100214.06
2023-01-08T21:14:16.425Z,100219.78
2023-01-08T21:16:51.382Z,100207.72
2023-01-08T21:19:24.522Z,100213.06
2023-01-08T21:21:57.829Z,100210.81
2023-01-08T21:24:31.117Z,100213.38
2023-01-08T21:27:04.541Z,100206.34
2023-01-08T21:29:38.729Z,100213.19
2023-01-08T21:32:14.139Z,100210.03
2023-01-08T21:34:47.431Z,100212.03
2023-01-08T21:37:20.940Z,100213.13
2023-01-08T21:39:54.259Z,100214.28
2023-01-08T21:42:44.957Z,100203.13
2023-01-08T21:45:27.735Z,100215.47
2023-01-08T21:48:02.715Z,100219.78
2023-01-08T21:50:36.411Z,100215.13
2023-01-08T21:53:27.640Z,100208.09
2023-01-08T21:56:00.992Z,100205.88
2023-01-08T21:58:35.014Z,100212.66
2023-01-08T22:01:09.899Z,100212.13
2023-01-08T22:03:58.260Z,100171.91
2023-01-08T22:06:31.408Z,100205.81
2023-01-08T22:09:05.305Z,100211.94
2023-01-08T22:11:39.089Z,100220.84
2023-01-08T22:14:13.057Z,100214.06
2023-01-08T22:16:46.749Z,100222.47
2023-01-08T22:19:21.252Z,100217.16
2023-01-08T22:21:55.997Z,100213.75
2023-01-08T22:24:29.488Z,100212.91
2023-01-08T22:27:03.073Z,100221.66
2023-01-08T22:29:36.664Z,100214.34
2023-01-08T22:32:09.999Z,100213.06
2023-01-08T22:34:44.556Z,100222.63
2023-01-08T22:37:21.604Z,100220.56
2023-01-08T22:39:55.280Z,100216.56
2023-01-08T22:42:28.911Z,100214.31
2023-01-08T22:45:02.132Z,100213.06
2023-01-08T22:47:35.533Z,100205.28
2023-01-08T22:50:11.584Z,100207.19
2023-01-08T22:52:45.004Z,100215.03
2023-01-08T22:55:19.075Z,100211.94
2023-01-08T22:57:53.271Z,100205.91
2023-01-08T23:00:26.888Z,100195.22
2023-01-08T23:03:00.278Z,100203.16
2023-01-08T23:05:35.043Z,100206.50
2023-01-08T23:08:09.001Z,100199.38
2023-01-08T23:10:42.607Z,100193.13
2023-01-08T23:13:16.923Z,100197.84
2023-01-08T23:15:50.484Z,100198.06
2023-01-08T23:18:23.777Z,100193.13
2023-01-08T23:21:03.986Z,100192.75
2023-01-08T23:23:37.992Z,100201.84
2023-01-08T23:26:14.240Z,100188.25
2023-01-08T23:28:48.116Z,100195.69
2023-01-08T23:31:23.973Z,100194.44
2023-01-08T23:33:58.182Z,100197.00
2023-01-08T23:36:33.345Z,100189.53
2023-01-08T23:39:06.987Z,100192.94
2023-01-08T23:41:40.405Z,100194.13
2023-01-08T23:44:15.929Z,100195.06
2023-01-08T23:46:49.185Z,100192.38
2023-01-08T23:49:22.505Z,100190.03
2023-01-08T23:51:57.160Z,100199.81
2023-01-08T23:54:30.869Z,100204.84
2023-01-08T23:57:06.207Z,100202.66
2023-01-08T23:59:39.469Z,100199.59
